sensor_id;sensor_type;location;lat;lon;timestamp;pressure;altitude;pressure_sealevel;temperature;humidity
50484;BME280;36409;52.168;20.878;2023-03-25T00:01:27;99297.46;;;9.52;73.33
50484;BME280;36409;52.168;20.878;2023-03-25T00:03:59;99292.36;;;9.49;73.54
50484;BME280;36409;52.168;20.878;2023-03-25T00:06:29;99294.98;;;9.48;73.12
50484;BME280;36409;52.168;20.878;2023-03-25T00:08:57;99282.91;;;9.45;73.36
50484;BME280;36409;52.168;20.878;2023-03-25T00:11:29;99293.39;;;9.42;73.32
50484;BME280;36409;52.168;20.878;2023-03-25T00:13:58;99303.05;;;9.38;73.12
50484;BME280;36409;52.168;20.878;2023-03-25T00:16:28;99289.20;;;9.36;73.32
50484;BME280;36409;52.168;20.878;2023-03-25T00:18:59;99298.85;;;9.33;73.06
50484;BME280;36409;52.168;20.878;2023-03-25T00:21:29;99304.11;;;9.31;73.30
50484;BME280;36409;52.168;20.878;2023-03-25T00:24:00;99289.44;;;9.29;73.39
50484;BME280;36409;52.168;20.878;2023-03-25T00:26:29;99285.91;;;9.30;73.76
50484;BME280;36409;52.168;20.878;2023-03-25T00:28:59;99285.11;;;9.27;73.29
50484;BME280;36409;52.168;20.878;2023-03-25T00:31:29;99298.97;;;9.28;73.95
50484;BME280;36409;52.168;20.878;2023-03-25T00:33:58;99296.42;;;9.26;73.27
50484;BME280;36409;52.168;20.878;2023-03-25T00:36:28;99296.38;;;9.28;74.23
50484;BME280;36409;52.168;20.878;2023-03-25T00:38:58;99298.16;;;9.26;74.27
50484;BME280;36409;52.168;20.878;2023-03-25T00:41:28;99297.31;;;9.25;73.42
50484;BME280;36409;52.168;20.878;2023-03-25T00:43:58;99298.20;;;9.24;73.96
50484;BME280;36409;52.168;20.878;2023-03-25T00:46:31;99299.98;;;9.22;74.08
50484;BME280;36409;52.168;20.878;2023-03-25T00:49:00;99294.83;;;9.21;74.13
50484;BME280;36409;52.168;20.878;2023-03-25T00:51:30;99291.41;;;9.19;74.02
50484;BME280;36409;52.168;20.878;2023-03-25T00:54:00;99290.59;;;9.17;73.81
50484;BME280;36409;52.168;20.878;2023-03-25T00:56:30;99294.97;;;9.15;73.94
50484;BME280;36409;52.168;20.878;2023-03-25T00:59:00;99295.07;;;9.11;74.16
50484;BME280;36409;52.168;20.878;2023-03-25T01:01:29;99293.38;;;9.09;73.40
50484;BME280;36409;52.168;20.878;2023-03-25T01:03:59;99281.35;;;9.05;74.38
50484;BME280;36409;52.168;20.878;2023-03-25T01:06:32;99288.34;;;9.03;73.68
50484;BME280;36409;52.168;20.878;2023-03-25T01:09:02;99295.39;;;8.98;74.05
50484;BME280;36409;52.168;20.878;2023-03-25T01:11:33;99295.51;;;8.93;73.86
50484;BME280;36409;52.168;20.878;2023-03-25T01:14:04;99286.88;;;8.91;73.71
50484;BME280;36409;52.168;20.878;2023-03-25T01:16:34;99293.91;;;8.87;73.57
50484;BME280;36409;52.168;20.878;2023-03-25T01:19:03;99292.25;;;8.85;74.07
50484;BME280;36409;52.168;20.878;2023-03-25T01:21:32;99295.80;;;8.80;73.81
50484;BME280;36409;52.168;20.878;2023-03-25T01:24:07;99295.90;;;8.77;74.17
50484;BME280;36409;52.168;20.878;2023-03-25T01:26:37;99295.09;;;8.74;74.30
50484;BME280;36409;52.168;20.878;2023-03-25T01:29:09;99295.20;;;8.69;74.10
50484;BME280;36409;52.168;20.878;2023-03-25T01:31:39;99297.02;;;8.65;74.51
50484;BME280;36409;52.168;20.878;2023-03-25T01:34:08;99290.17;;;8.61;73.67
50484;BME280;36409;52.168;20.878;2023-03-25T01:36:38;99283.34;;;8.57;74.21
50484;BME280;36409;52.168;20.878;2023-03-25T01:39:08;99280.86;;;8.53;74.39
50484;BME280;36409;52.168;20.878;2023-03-25T01:41:38;99290.48;;;8.49;74.37
50484;BME280;36409;52.168;20.878;2023-03-25T01:47:24;99283.75;;;8.39;74.36
50484;BME280;36409;52.168;20.878;2023-03-25T01:49:54;99282.94;;;8.35;73.99
50484;BME280;36409;52.168;20.878;2023-03-25T01:52:26;99281.31;;;8.31;73.83
50484;BME280;36409;52.168;20.878;2023-03-25T01:54:58;99285.73;;;8.27;74.28
50484;BME280;36409;52.168;20.878;2023-03-25T01:57:28;99282.31;;;8.24;74.03
50484;BME280;36409;52.168;20.878;2023-03-25T02:00:01;99285.01;;;8.21;74.41
50484;BME280;36409;52.168;20.878;2023-03-25T02:02:40;99291.99;;;8.17;74.18
50484;BME280;36409;52.168;20.878;2023-03-25T02:05:15;99305.09;;;8.12;74.44
50484;BME280;36409;52.168;20.878;2023-03-25T02:07:48;99308.67;;;8.07;74.37
50484;BME280;36409;52.168;20.878;2023-03-25T02:10:18;99294.00;;;8.04;74.44
50484;BME280;36409;52.168;20.878;2023-03-25T02:12:48;99298.41;;;8.00;74.23
50484;BME280;36409;52.168;20.878;2023-03-25T02:15:19;99297.63;;;7.97;74.43
50484;BME280;36409;52.168;20.878;2023-03-25T02:18:16;99290.77;;;7.93;74.55
50484;BME280;36409;52.168;20.878;2023-03-25T02:27:36;99282.48;;;7.75;74.41
50484;BME280;36409;52.168;20.878;2023-03-25T02:30:47;99282.57;;;7.70;74.35
50484;BME280;36409;52.168;20.878;2023-03-25T02:33:58;99274.88;;;7.64;74.48
50484;BME280;36409;52.168;20.878;2023-03-25T02:39:39;99285.45;;;7.55;74.65
50484;BME280;36409;52.168;20.878;2023-03-25T02:42:14;99284.66;;;7.51;74.71
50484;BME280;36409;52.168;20.878;2023-03-25T02:44:55;99288.14;;;7.50;74.77
50484;BME280;36409;52.168;20.878;2023-03-25T02:47:26;99288.19;;;7.47;74.83
50484;BME280;36409;52.168;20.878;2023-03-25T02:50:02;99288.23;;;7.46;74.82
50484;BME280;36409;52.168;20.878;2023-03-25T02:52:37;99290.88;;;7.42;74.67
50484;BME280;36409;52.168;20.878;2023-03-25T02:55:10;99286.60;;;7.40;74.90
50484;BME280;36409;52.168;20.878;2023-03-25T02:57:44;99290.12;;;7.37;74.75
50484;BME280;36409;52.168;20.878;2023-03-25T03:00:19;99288.41;;;7.35;74.81
50484;BME280;36409;52.168;20.878;2023-03-25T03:02:53;99294.52;;;7.32;74.82
50484;BME280;36409;52.168;20.878;2023-03-25T03:05:30;99294.56;;;7.29;74.66
50484;BME280;36409;52.168;20.878;2023-03-25T03:08:10;99289.45;;;7.26;74.90
50484;BME280;36409;52.168;20.878;2023-03-25T03:10:50;99288.62;;;7.22;74.88
50484;BME280;36409;52.168;20.878;2023-03-25T03:13:28;99296.50;;;7.18;74.91
50484;BME280;36409;52.168;20.878;2023-03-25T03:16:09;99300.89;;;7.14;74.96
50484;BME280;36409;52.168;20.878;2023-03-25T03:18:47;99302.72;;;7.09;75.03
50484;BME280;36409;52.168;20.878;2023-03-25T03:21:24;99294.98;;;7.06;75.02
50484;BME280;36409;52.168;20.878;2023-03-25T03:24:00;99298.49;;;7.03;75.20
50484;BME280;36409;52.168;20.878;2023-03-25T03:26:37;99297.66;;;7.00;75.22
50484;BME280;36409;52.168;20.878;2023-03-25T03:29:10;99293.43;;;6.94;75.06
50484;BME280;36409;52.168;20.878;2023-03-25T03:31:45;99302.13;;;6.91;75.13
50484;BME280;36409;52.168;20.878;2023-03-25T03:34:39;99299.58;;;6.88;75.27
50484;BME280;36409;52.168;20.878;2023-03-25T03:37:16;99298.77;;;6.85;75.24
50484;BME280;36409;52.168;20.878;2023-03-25T03:39:48;99303.16;;;6.81;75.08
50484;BME280;36409;52.168;20.878;2023-03-25T03:42:22;99287.63;;;6.78;75.20
50484;BME280;36409;52.168;20.878;2023-03-25T03:44:59;99296.37;;;6.74;75.12
50484;BME280;36409;52.168;20.878;2023-03-25T03:47:34;99290.38;;;6.69;75.57
50484;BME280;36409;52.168;20.878;2023-03-25T03:50:10;99297.36;;;6.65;75.15
50484;BME280;36409;52.168;20.878;2023-03-25T03:52:45;99298.30;;;6.59;75.13
50484;BME280;36409;52.168;20.878;2023-03-25T03:55:18;99305.23;;;6.57;75.32
50484;BME280;36409;52.168;20.878;2023-03-25T03:57:52;99317.36;;;6.55;75.17
50484;BME280;36409;52.168;20.878;2023-03-25T04:00:26;99306.19;;;6.52;75.15
50484;BME280;36409;52.168;20.878;2023-03-25T04:03:03;99306.25;;;6.47;75.45
50484;BME280;36409;52.168;20.878;2023-03-25T04:05:38;99316.66;;;6.45;75.34
50484;BME280;36409;52.168;20.878;2023-03-25T04:08:12;99317.50;;;6.46;75.54
50484;BME280;36409;52.168;20.878;2023-03-25T04:10:52;99313.23;;;6.43;75.56
50484;BME280;36409;52.168;20.878;2023-03-25T04:13:32;99321.88;;;6.42;75.61
50484;BME280;36409;52.168;20.878;2023-03-25T04:16:03;99323.59;;;6.42;75.62
50484;BME280;36409;52.168;20.878;2023-03-25T04:18:35;99321.00;;;6.42;75.74
50484;BME280;36409;52.168;20.878;2023-03-25T04:21:09;99319.28;;;6.42;75.44
50484;BME280;36409;52.168;20.878;2023-03-25T04:23:37;99321.88;;;6.42;75.77
50484;BME280;36409;52.168;20.878;2023-03-25T04:26:08;99323.59;;;6.43;75.73
50484;BME280;36409;52.168;20.878;2023-03-25T04:28:37;99328.78;;;6.42;75.40
50484;BME280;36409;52.168;20.878;2023-03-25T04:31:12;99333.97;;;6.42;75.66
50484;BME280;36409;52.168;20.878;2023-03-25T04:33:44;99333.13;;;6.41;75.39
50484;BME280;36409;52.168;20.878;2023-03-25T04:36:18;99340.02;;;6.42;75.85
50484;BME280;36409;52.168;20.878;2023-03-25T04:38:48;99327.91;;;6.43;75.75
50484;BME280;36409;52.168;20.878;2023-03-25T04:41:18;99327.91;;;6.44;75.63
50484;BME280;36409;52.168;20.878;2023-03-25T04:43:47;99330.50;;;6.44;75.87
50484;BME280;36409;52.168;20.878;2023-03-25T04:46:25;99333.94;;;6.46;75.92
50484;BME280;36409;52.168;20.878;2023-03-25T04:49:03;99323.53;;;6.48;75.98
50484;BME280;36409;52.168;20.878;2023-03-25T04:51:34;99316.63;;;6.47;75.70
50484;BME280;36409;52.168;20.878;2023-03-25T04:54:03;99322.69;;;6.46;75.84
50484;BME280;36409;52.168;20.878;2023-03-25T04:56:35;99324.38;;;6.50;75.84
50484;BME280;36409;52.168;20.878;2023-03-25T04:59:04;99332.08;;;6.55;76.07
50484;BME280;36409;52.168;20.878;2023-03-25T05:01:38;99338.91;;;6.60;75.99
50484;BME280;36409;52.168;20.878;2023-03-25T05:04:10;99338.81;;;6.67;76.08
50484;BME280;36409;52.168;20.878;2023-03-25T05:06:43;99331.84;;;6.72;76.21
50484;BME280;36409;52.168;20.878;2023-03-25T05:09:19;99328.30;;;6.76;76.06
50484;BME280;36409;52.168;20.878;2023-03-25T05:11:52;99334.28;;;6.81;76.33
50484;BME280;36409;52.168;20.878;2023-03-25T05:14:23;99334.21;;;6.86;76.24
50484;BME280;36409;52.168;20.878;2023-03-25T05:16:52;99328.11;;;6.90;76.26
50484;BME280;36409;52.168;20.878;2023-03-25T05:19:22;99330.63;;;6.94;76.18
50484;BME280;36409;52.168;20.878;2023-03-25T05:21:52;99334.86;;;7.00;76.38
50484;BME280;36409;52.168;20.878;2023-03-25T05:24:23;99336.50;;;7.06;76.18
50484;BME280;36409;52.168;20.878;2023-03-25T05:26:55;99336.42;;;7.10;76.19
50484;BME280;36409;52.168;20.878;2023-03-25T05:29:28;99335.47;;;7.16;76.33
50484;BME280;36409;52.168;20.878;2023-03-25T05:32:04;99333.70;;;7.18;76.28
50484;BME280;36409;52.168;20.878;2023-03-25T05:34:34;99339.66;;;7.23;76.37
50484;BME280;36409;52.168;20.878;2023-03-25T05:37:04;99343.05;;;7.29;76.56
50484;BME280;36409;52.168;20.878;2023-03-25T05:39:33;99347.28;;;7.33;76.67
50484;BME280;36409;52.168;20.878;2023-03-25T05:42:03;99350.67;;;7.38;76.51
50484;BME280;36409;52.168;20.878;2023-03-25T05:44:32;99354.03;;;7.43;76.38
50484;BME280;36409;52.168;20.878;2023-03-25T05:47:04;99345.31;;;7.47;76.63
50484;BME280;36409;52.168;20.878;2023-03-25T05:49:33;99346.06;;;7.54;76.23
50484;BME280;36409;52.168;20.878;2023-03-25T05:52:03;99352.89;;;7.60;76.75
50484;BME280;36409;52.168;20.878;2023-03-25T05:54:33;99354.47;;;7.67;76.79
50484;BME280;36409;52.168;20.878;2023-03-25T05:57:06;99358.70;;;7.72;76.45
50484;BME280;36409;52.168;20.878;2023-03-25T05:59:36;99353.41;;;7.79;76.40
50484;BME280;36409;52.168;20.878;2023-03-25T06:02:09;99353.28;;;7.85;76.45
50484;BME280;36409;52.168;20.878;2023-03-25T06:04:39;99351.42;;;7.92;76.73
50484;BME280;36409;52.168;20.878;2023-03-25T06:07:11;99347.84;;;7.97;76.64
50484;BME280;36409;52.168;20.878;2023-03-25T06:09:47;99353.73;;;8.06;76.35
50484;BME280;36409;52.168;20.878;2023-03-25T06:12:21;99354.47;;;8.12;76.62
50484;BME280;36409;52.168;20.878;2023-03-25T06:14:50;99349.12;;;8.20;76.21
50484;BME280;36409;52.168;20.878;2023-03-25T06:17:21;99354.17;;;8.28;76.75
50484;BME280;36409;52.168;20.878;2023-03-25T06:19:51;99357.45;;;8.38;76.82
50484;BME280;36409;52.168;20.878;2023-03-25T06:22:20;99345.11;;;8.47;76.74
50484;BME280;36409;52.168;20.878;2023-03-25T06:24:49;99344.84;;;8.60;76.37
50484;BME280;36409;52.168;20.878;2023-03-25T06:27:22;99360.13;;;8.74;76.17
50484;BME280;36409;52.168;20.878;2023-03-25T06:29:51;99354.59;;;8.89;77.13
50484;BME280;36409;52.168;20.878;2023-03-25T06:32:20;99355.08;;;9.05;76.23
50484;BME280;36409;52.168;20.878;2023-03-25T06:34:51;99350.23;;;9.26;76.40
50484;BME280;36409;52.168;20.878;2023-03-25T06:37:20;99360.03;;;9.51;75.78
50484;BME280;36409;52.168;20.878;2023-03-25T06:39:53;99354.82;;;9.84;76.40
50484;BME280;36409;52.168;20.878;2023-03-25T06:42:25;99351.80;;;9.99;76.31
50484;BME280;36409;52.168;20.878;2023-03-25T06:45:20;99350.91;;;10.00;76.73
50484;BME280;36409;52.168;20.878;2023-03-25T06:48:14;99356.02;;;10.03;76.38
50484;BME280;36409;52.168;20.878;2023-03-25T06:50:42;99350.85;;;10.02;75.80
50484;BME280;36409;52.168;20.878;2023-03-25T06:53:12;99354.22;;;10.05;76.01
50484;BME280;36409;52.168;20.878;2023-03-25T06:55:41;99342.55;;;10.19;75.87
50484;BME280;36409;52.168;20.878;2023-03-25T06:58:12;99344.80;;;10.31;75.72
50484;BME280;36409;52.168;20.878;2023-03-25T07:00:41;99343.74;;;10.39;75.64
50484;BME280;36409;52.168;20.878;2023-03-25T07:03:11;99337.47;;;10.46;75.95
50484;BME280;36409;52.168;20.878;2023-03-25T07:05:41;99334.51;;;10.57;75.36
50484;BME280;36409;52.168;20.878;2023-03-25T07:08:11;99329.20;;;10.60;75.15
50484;BME280;36409;52.168;20.878;2023-03-25T07:10:42;99336.28;;;10.56;74.97
50484;BME280;36409;52.168;20.878;2023-03-25T07:13:13;99340.45;;;10.62;75.37
50484;BME280;36409;52.168;20.878;2023-03-25T07:15:42;99336.66;;;10.72;75.06
50484;BME280;36409;52.168;20.878;2023-03-25T07:18:12;99344.14;;;10.83;75.37
50484;BME280;36409;52.168;20.878;2023-03-25T07:20:41;99339.19;;;11.02;74.50
50484;BME280;36409;52.168;20.878;2023-03-25T07:23:14;99339.35;;;11.24;75.71
50484;BME280;36409;52.168;20.878;2023-03-25T07:25:43;99337.75;;;11.46;74.91
50484;BME280;36409;52.168;20.878;2023-03-25T07:28:12;99333.45;;;11.70;73.96
50484;BME280;36409;52.168;20.878;2023-03-25T07:30:56;99326.00;;;12.08;73.13
50484;BME280;36409;52.168;20.878;2023-03-25T07:33:25;99339.74;;;12.61;73.45
50484;BME280;36409;52.168;20.878;2023-03-25T07:35:54;99326.34;;;12.91;73.29
50484;BME280;36409;52.168;20.878;2023-03-25T07:38:24;99330.23;;;13.23;72.57
50484;BME280;36409;52.168;20.878;2023-03-25T07:40:53;99341.23;;;13.54;72.47
50484;BME280;36409;52.168;20.878;2023-03-25T07:43:22;99334.68;;;13.43;72.54
50484;BME280;36409;52.168;20.878;2023-03-25T07:45:57;99337.88;;;13.71;72.95
50484;BME280;36409;52.168;20.878;2023-03-25T07:48:30;99337.48;;;13.80;72.65
50484;BME280;36409;52.168;20.878;2023-03-25T07:50:59;99334.48;;;14.66;70.46
50484;BME280;36409;52.168;20.878;2023-03-25T07:53:29;99331.28;;;15.85;69.57
50484;BME280;36409;52.168;20.878;2023-03-25T07:55:57;99336.86;;;16.13;69.99
50484;BME280;36409;52.168;20.878;2023-03-25T07:58:27;99335.80;;;15.99;69.96
50484;BME280;36409;52.168;20.878;2023-03-25T08:00:57;99335.89;;;15.98;69.84
50484;BME280;36409;52.168;20.878;2023-03-25T08:03:26;99338.84;;;16.41;69.06
50484;BME280;36409;52.168;20.878;2023-03-25T08:05:58;99328.63;;;16.67;68.69
50484;BME280;36409;52.168;20.878;2023-03-25T08:08:27;99324.01;;;17.78;67.41
50484;BME280;36409;52.168;20.878;2023-03-25T08:10:58;99325.29;;;18.58;66.47
50484;BME280;36409;52.168;20.878;2023-03-25T08:13:28;99318.10;;;20.06;64.92
50484;BME280;36409;52.168;20.878;2023-03-25T08:15:57;99326.27;;;21.85;63.84
50484;BME280;36409;52.168;20.878;2023-03-25T08:18:27;99313.16;;;23.38;61.55
50484;BME280;36409;52.168;20.878;2023-03-25T08:20:56;99321.79;;;24.34;59.65
50484;BME280;36409;52.168;20.878;2023-03-25T08:23:25;99322.87;;;25.32;58.18
50484;BME280;36409;52.168;20.878;2023-03-25T08:25:54;99324.75;;;26.26;56.81
50484;BME280;36409;52.168;20.878;2023-03-25T08:28:23;99313.55;;;27.05;55.79
50484;BME280;36409;52.168;20.878;2023-03-25T08:30:55;99310.42;;;27.54;55.67
50484;BME280;36409;52.168;20.878;2023-03-25T08:33:25;99316.55;;;26.84;55.69
50484;BME280;36409;52.168;20.878;2023-03-25T08:36:01;99314.20;;;26.71;54.24
50484;BME280;36409;52.168;20.878;2023-03-25T08:38:36;99307.34;;;27.67;52.59
50484;BME280;36409;52.168;20.878;2023-03-25T08:41:13;99308.72;;;26.72;52.68
50484;BME280;36409;52.168;20.878;2023-03-25T08:43:45;99312.20;;;25.02;53.90
50484;BME280;36409;52.168;20.878;2023-03-25T08:46:14;99309.31;;;23.73;55.27
50484;BME280;36409;52.168;20.878;2023-03-25T08:48:44;99311.45;;;22.83;56.05
50484;BME280;36409;52.168;20.878;2023-03-25T08:51:17;99314.45;;;22.00;56.34
50484;BME280;36409;52.168;20.878;2023-03-25T08:53:48;99315.42;;;21.29;56.44
50484;BME280;36409;52.168;20.878;2023-03-25T08:56:19;99313.20;;;20.88;55.96
50484;BME280;36409;52.168;20.878;2023-03-25T08:58:48;99309.81;;;21.57;54.04
50484;BME280;36409;52.168;20.878;2023-03-25T09:01:20;99309.58;;;22.95;50.97
50484;BME280;36409;52.168;20.878;2023-03-25T09:03:50;99305.61;;;22.89;51.38
50484;BME280;36409;52.168;20.878;2023-03-25T09:06:22;99306.20;;;24.40;50.14
50484;BME280;36409;52.168;20.878;2023-03-25T09:08:53;99306.85;;;25.32;50.11
50484;BME280;36409;52.168;20.878;2023-03-25T09:11:23;99301.74;;;26.05;49.79
50484;BME280;36409;52.168;20.878;2023-03-25T09:14:06;99305.90;;;25.13;50.68
50484;BME280;36409;52.168;20.878;2023-03-25T09:16:37;99307.88;;;23.48;52.41
50484;BME280;36409;52.168;20.878;2023-03-25T09:19:08;99300.44;;;22.88;53.30
50484;BME280;36409;52.168;20.878;2023-03-25T09:21:41;99307.08;;;22.15;53.02
50484;BME280;36409;52.168;20.878;2023-03-25T09:24:11;99304.80;;;21.29;53.00
50484;BME280;36409;52.168;20.878;2023-03-25T09:26:42;99300.85;;;20.75;53.89
50484;BME280;36409;52.168;20.878;2023-03-25T09:29:11;99308.58;;;20.41;53.94
50484;BME280;36409;52.168;20.878;2023-03-25T09:31:42;99304.95;;;20.18;54.69
50484;BME280;36409;52.168;20.878;2023-03-25T09:34:11;99306.88;;;20.03;54.70
50484;BME280;36409;52.168;20.878;2023-03-25T09:36:43;99306.98;;;19.75;54.51
50484;BME280;36409;52.168;20.878;2023-03-25T09:39:12;99306.33;;;19.59;54.89
50484;BME280;36409;52.168;20.878;2023-03-25T09:41:51;99304.01;;;19.41;55.28
50484;BME280;36409;52.168;20.878;2023-03-25T09:44:26;99305.08;;;18.98;54.37
50484;BME280;36409;52.168;20.878;2023-03-25T09:46:59;99301.66;;;18.69;54.45
50484;BME280;36409;52.168;20.878;2023-03-25T09:49:35;99302.30;;;18.45;54.58
50484;BME280;36409;52.168;20.878;2023-03-25T09:52:09;99306.95;;;18.13;55.05
50484;BME280;36409;52.168;20.878;2023-03-25T09:54:45;99316.22;;;18.05;55.94
50484;BME280;36409;52.168;20.878;2023-03-25T09:57:21;99314.80;;;18.00;55.86
50484;BME280;36409;52.168;20.878;2023-03-25T09:59:52;99310.64;;;17.96;56.11
50484;BME280;36409;52.168;20.878;2023-03-25T10:02:28;99307.14;;;17.95;56.20
50484;BME280;36409;52.168;20.878;2023-03-25T10:05:20;99302.98;;;17.91;56.06
50484;BME280;36409;52.168;20.878;2023-03-25T10:08:05;99299.41;;;17.92;56.38
50484;BME280;36409;52.168;20.878;2023-03-25T10:10:43;99300.16;;;17.94;56.19
50484;BME280;36409;52.168;20.878;2023-03-25T10:13:21;99295.92;;;17.77;55.73
50484;BME280;36409;52.168;20.878;2023-03-25T10:15:57;99299.62;;;17.89;55.93
50484;BME280;36409;52.168;20.878;2023-03-25T10:18:46;99297.50;;;18.37;56.22
50484;BME280;36409;52.168;20.878;2023-03-25T10:21:22;99299.21;;;18.66;56.07
50484;BME280;36409;52.168;20.878;2023-03-25T10:23:59;99290.41;;;18.80;56.49
50484;BME280;36409;52.168;20.878;2023-03-25T10:26:39;99288.79;;;19.05;56.33
50484;BME280;36409;52.168;20.878;2023-03-25T10:29:13;99287.71;;;18.94;56.45
50484;BME280;36409;52.168;20.878;2023-03-25T10:31:50;99276.44;;;18.78;55.93
50484;BME280;36409;52.168;20.878;2023-03-25T10:34:24;99277.84;;;18.56;55.41
50484;BME280;36409;52.168;20.878;2023-03-25T10:37:00;99281.43;;;18.55;55.58
50484;BME280;36409;52.168;20.878;2023-03-25T10:39:33;99276.18;;;18.68;55.93
50484;BME280;36409;52.168;20.878;2023-03-25T10:42:16;99277.69;;;18.72;55.48
50484;BME280;36409;52.168;20.878;2023-03-25T10:44:49;99269.15;;;18.81;55.72
50484;BME280;36409;52.168;20.878;2023-03-25T10:47:21;99269.65;;;18.74;55.58
50484;BME280;36409;52.168;20.878;2023-03-25T10:49:53;99269.45;;;18.77;56.20
50484;BME280;36409;52.168;20.878;2023-03-25T10:52:23;99265.08;;;18.63;55.35
50484;BME280;36409;52.168;20.878;2023-03-25T10:54:54;99271.84;;;18.40;55.41
50484;BME280;36409;52.168;20.878;2023-03-25T10:57:26;99265.17;;;18.19;55.27
50484;BME280;36409;52.168;20.878;2023-03-25T11:00:02;99267.55;;;17.95;55.05
50484;BME280;36409;52.168;20.878;2023-03-25T11:02:34;99262.08;;;17.69;54.85
50484;BME280;36409;52.168;20.878;2023-03-25T11:05:05;99254.19;;;17.55;54.85
50484;BME280;36409;52.168;20.878;2023-03-25T11:07:37;99255.67;;;17.59;55.40
50484;BME280;36409;52.168;20.878;2023-03-25T11:10:17;99250.69;;;17.69;55.15
50484;BME280;36409;52.168;20.878;2023-03-25T11:12:51;99244.19;;;17.74;55.50
50484;BME280;36409;52.168;20.878;2023-03-25T11:15:24;99241.55;;;17.74;54.82
50484;BME280;36409;52.168;20.878;2023-03-25T11:17:59;99234.39;;;17.77;55.21
50484;BME280;36409;52.168;20.878;2023-03-25T11:20:36;99230.42;;;17.84;55.25
50484;BME280;36409;52.168;20.878;2023-03-25T11:23:07;99234.39;;;17.77;55.02
50484;BME280;36409;52.168;20.878;2023-03-25T11:25:43;99229.50;;;17.56;54.96
50484;BME280;36409;52.168;20.878;2023-03-25T11:28:17;99225.16;;;17.40;54.80
50484;BME280;36409;52.168;20.878;2023-03-25T11:31:10;99211.29;;;17.22;54.76
50484;BME280;36409;52.168;20.878;2023-03-25T11:33:43;99212.41;;;17.18;55.02
50484;BME280;36409;52.168;20.878;2023-03-25T11:36:26;99205.64;;;17.14;55.14
50484;BME280;36409;52.168;20.878;2023-03-25T11:38:59;99209.48;;;17.08;55.19
50484;BME280;36409;52.168;20.878;2023-03-25T11:41:30;99207.20;;;17.02;55.05
50484;BME280;36409;52.168;20.878;2023-03-25T11:44:01;99211.29;;;16.92;55.18
50484;BME280;36409;52.168;20.878;2023-03-25T11:46:41;99215.50;;;16.80;55.15
50484;BME280;36409;52.168;20.878;2023-03-25T11:49:20;99209.25;;;16.66;55.02
50484;BME280;36409;52.168;20.878;2023-03-25T11:51:50;99210.88;;;16.53;55.06
50484;BME280;36409;52.168;20.878;2023-03-25T11:54:32;99205.48;;;16.40;55.11
50484;BME280;36409;52.168;20.878;2023-03-25T11:57:13;99209.90;;;16.24;54.93
50484;BME280;36409;52.168;20.878;2023-03-25T11:59:47;99208.46;;;16.02;55.41
50484;BME280;36409;52.168;20.878;2023-03-25T12:02:22;99204.90;;;15.87;55.15
50484;BME280;36409;52.168;20.878;2023-03-25T12:04:58;99202.74;;;15.78;55.06
50484;BME280;36409;52.168;20.878;2023-03-25T12:07:41;99201.88;;;15.77;55.51
50484;BME280;36409;52.168;20.878;2023-03-25T12:10:16;99201.72;;;15.80;55.15
50484;BME280;36409;52.168;20.878;2023-03-25T12:12:56;99188.28;;;15.86;55.29
50484;BME280;36409;52.168;20.878;2023-03-25T12:15:35;99186.48;;;16.03;55.47
50484;BME280;36409;52.168;20.878;2023-03-25T12:18:25;99184.52;;;16.06;55.20
50484;BME280;36409;52.168;20.878;2023-03-25T12:21:03;99181.05;;;16.06;55.23
50484;BME280;36409;52.168;20.878;2023-03-25T12:23:42;99183.95;;;16.01;55.32
50484;BME280;36409;52.168;20.878;2023-03-25T12:26:19;99173.67;;;15.97;55.41
50484;BME280;36409;52.168;20.878;2023-03-25T12:29:19;99180.96;;;15.92;55.79
50484;BME280;36409;52.168;20.878;2023-03-25T12:32:07;99178.17;;;15.95;55.80
50484;BME280;36409;52.168;20.878;2023-03-25T12:35:05;99174.67;;;15.94;55.71
50484;BME280;36409;52.168;20.878;2023-03-25T12:37:54;99174.86;;;15.91;55.70
50484;BME280;36409;52.168;20.878;2023-03-25T12:40:40;99168.41;;;15.97;56.13
50484;BME280;36409;52.168;20.878;2023-03-25T12:43:18;99162.03;;;16.01;55.78
50484;BME280;36409;52.168;20.878;2023-03-25T12:46:06;99161.86;;;16.04;55.80
50484;BME280;36409;52.168;20.878;2023-03-25T12:49:02;99160.77;;;16.08;55.49
50484;BME280;36409;52.168;20.878;2023-03-25T12:51:42;99159.64;;;16.12;55.80
50484;BME280;36409;52.168;20.878;2023-03-25T12:54:34;99161.03;;;16.03;55.92
50484;BME280;36409;52.168;20.878;2023-03-25T12:57:24;99157.54;;;15.87;55.59
50484;BME280;36409;52.168;20.878;2023-03-25T13:00:14;99168.95;;;15.70;55.73
50484;BME280;36409;52.168;20.878;2023-03-25T13:03:07;99162.87;;;15.36;55.18
50484;BME280;36409;52.168;20.878;2023-03-25T13:05:48;99164.50;;;15.05;55.71
50484;BME280;36409;52.168;20.878;2023-03-25T13:08:24;99166.67;;;14.79;55.69
50484;BME280;36409;52.168;20.878;2023-03-25T13:11:00;99170.78;;;14.67;56.95
50484;BME280;36409;52.168;20.878;2023-03-25T13:13:33;99169.80;;;14.50;56.42
50484;BME280;36409;52.168;20.878;2023-03-25T13:16:08;99164.59;;;14.31;56.93
50484;BME280;36409;52.168;20.878;2023-03-25T13:18:45;99176.83;;;14.13;56.70
50484;BME280;36409;52.168;20.878;2023-03-25T13:21:18;99167.65;;;14.04;57.60
50484;BME280;36409;52.168;20.878;2023-03-25T13:23:55;99160.84;;;14.00;57.70
50484;BME280;36409;52.168;20.878;2023-03-25T13:26:28;99163.69;;;13.96;57.52
50484;BME280;36409;52.168;20.878;2023-03-25T13:29:02;99165.13;;;13.84;57.35
50484;BME280;36409;52.168;20.878;2023-03-25T13:31:38;99162.16;;;13.72;58.21
50484;BME280;36409;52.168;20.878;2023-03-25T13:34:19;99155.55;;;13.64;58.68
50484;BME280;36409;52.168;20.878;2023-03-25T13:37:05;99149.95;;;13.52;58.20
50484;BME280;36409;52.168;20.878;2023-03-25T13:39:47;99139.68;;;13.48;58.91
50484;BME280;36409;52.168;20.878;2023-03-25T13:42:27;99135.22;;;13.50;59.26
50484;BME280;36409;52.168;20.878;2023-03-25T13:45:02;99135.06;;;13.53;58.47